Time;durP1;ratioP1;P1;durP2;ratioP2;P2;SDS_P1;SDS_P2;PMS_P1;PMS_P2;Temp;Humidity;BMP_temperature;BMP_pressure;BME280_temperature;BME280_humidity;BME280_pressure;Samples;Min_cycle;Max_cycle;Signal;HPM_P1;HPM_P2
2022/07/11 00:00:16;;;;;;;6.18;4.57;;;;;;;16.31;76.34;102338.06;5054880;28;20025;-78
2022/07/11 00:02:42;;;;;;;7.18;4.13;;;;;;;16.33;76.18;102334.25;5054257;28;20040;-78
2022/07/11 00:06:04;;;;;;;9.35;4.93;;;;;;;16.37;74.83;102334.88;5054593;28;20103;-78
2022/07/11 00:08:30;;;;;;;8.88;4.50;;;;;;;16.25;76.54;102331.31;4992740;28;20509;-78
2022/07/11 00:10:55;;;;;;;12.85;5.03;;;;;;;16.30;76.33;102339.00;5050131;28;20032;-79
2022/07/11 00:13:20;;;;;;;9.15;5.22;;;;;;;16.23;76.48;102335.94;5054246;28;20029;-79
2022/07/11 00:15:46;;;;;;;9.25;4.25;;;;;;;16.22;76.66;102324.38;5040814;28;20041;-79
2022/07/11 00:18:11;;;;;;;7.03;4.60;;;;;;;16.20;76.62;102334.34;5053762;28;20508;-79
2022/07/11 00:20:37;;;;;;;8.30;4.80;;;;;;;16.14;77.10;102332.16;5055189;28;20099;-79
2022/07/11 00:23:02;;;;;;;9.63;4.53;;;;;;;16.11;76.96;102324.34;5053236;28;20028;-79
2022/07/11 00:25:27;;;;;;;8.20;4.55;;;;;;;16.07;77.42;102322.84;5053768;28;20028;-79
2022/07/11 00:27:52;;;;;;;10.18;4.60;;;;;;;16.04;77.44;102318.59;5054656;28;20029;-79
2022/07/11 00:30:18;;;;;;;5.70;4.60;;;;;;;16.03;77.33;102319.56;5054273;28;20070;-78
2022/07/11 00:32:43;;;;;;;7.65;5.10;;;;;;;15.98;77.43;102315.53;5053526;28;20295;-79
2022/07/11 00:35:09;;;;;;;8.55;5.15;;;;;;;15.95;77.96;102316.59;5053855;28;20471;-79
2022/07/11 00:37:34;;;;;;;5.70;4.63;;;;;;;15.90;77.78;102308.94;5053589;28;20025;-79
2022/07/11 00:39:59;;;;;;;8.53;4.63;;;;;;;15.88;78.17;102308.19;5052584;28;20087;-79
2022/07/11 00:42:25;;;;;;;7.18;5.15;;;;;;;15.87;77.80;102309.19;5053734;28;20283;-79
2022/07/11 00:44:50;;;;;;;8.38;5.43;;;;;;;15.90;77.83;102308.94;5053959;28;20029;-78
2022/07/11 00:47:16;;;;;;;12.77;5.30;;;;;;;15.84;78.45;102320.13;5039582;28;20043;-79
2022/07/11 00:49:41;;;;;;;11.90;4.95;;;;;;;15.80;78.29;102323.13;5052624;28;20060;-78
2022/07/11 00:52:09;;;;;;;9.73;5.88;;;;;;;15.77;78.93;102316.22;5124419;22;20079;-81
2022/07/11 00:54:35;;;;;;;7.00;5.20;;;;;;;15.75;78.61;102310.06;5107721;28;20103;-80
2022/07/11 00:57:00;;;;;;;8.20;4.82;;;;;;;15.75;78.88;102306.53;5100257;28;20092;-80
2022/07/11 00:59:29;;;;;;;8.93;5.18;;;;;;;15.71;78.75;102309.44;5110737;28;20061;-80
2022/07/11 01:01:54;;;;;;;11.98;5.88;;;;;;;15.73;78.62;102312.84;5106351;28;20055;-80
2022/07/11 01:04:19;;;;;;;6.82;5.68;;;;;;;15.70;79.07;102304.19;5092576;28;20490;-80
2022/07/11 01:06:45;;;;;;;8.35;4.90;;;;;;;15.65;78.98;102307.19;5098089;28;20028;-81
2022/07/11 01:09:10;;;;;;;10.13;5.45;;;;;;;15.64;79.07;102304.66;5109809;28;20027;-80
2022/07/11 01:11:35;;;;;;;8.18;5.47;;;;;;;15.61;79.70;102307.56;5109739;28;20024;-80
2022/07/11 01:14:00;;;;;;;8.50;5.60;;;;;;;15.60;79.57;102309.38;5083433;28;20029;-80
2022/07/11 01:16:26;;;;;;;8.13;5.90;;;;;;;15.56;79.48;102302.56;5106316;28;20050;-80
2022/07/11 01:18:54;;;;;;;7.35;5.63;;;;;;;15.52;79.72;102301.06;5112322;28;20337;-80
2022/07/11 01:21:31;;;;;;;8.38;5.40;;;;;;;15.47;80.10;102304.09;5099032;28;20562;-80
2022/07/11 01:23:59;;;;;;;7.68;5.55;;;;;;;15.42;79.94;102308.94;5084658;28;20029;-78
2022/07/11 01:26:25;;;;;;;9.60;5.93;;;;;;;15.45;79.71;102306.00;5101198;28;20032;-79
2022/07/11 01:28:51;;;;;;;8.95;5.90;;;;;;;15.44;79.92;102306.16;5110605;28;20016;-80
2022/07/11 01:31:18;;;;;;;8.85;6.07;;;;;;;15.36;80.28;102302.19;5114314;28;20051;-79
2022/07/11 01:33:43;;;;;;;7.63;5.53;;;;;;;15.36;80.42;102304.03;5099864;28;20060;-80
2022/07/11 01:36:08;;;;;;;7.28;5.45;;;;;;;15.32;80.42;102303.41;5102735;28;20027;-79
2022/07/11 01:38:34;;;;;;;8.05;5.97;;;;;;;15.33;80.62;102297.06;5114100;28;20032;-79
2022/07/11 01:40:59;;;;;;;10.98;6.07;;;;;;;15.31;80.57;102299.00;5105664;28;20028;-79
2022/07/11 01:43:24;;;;;;;6.13;5.38;;;;;;;15.30;80.82;102301.78;5098588;28;20060;-80
2022/07/11 01:45:54;;;;;;;12.27;5.88;;;;;;;15.27;80.65;102300.22;5077894;28;20032;-80
2022/07/11 01:48:19;;;;;;;8.15;5.82;;;;;;;15.28;80.60;102303.75;5091111;28;20028;-80
2022/07/11 01:50:46;;;;;;;10.10;6.40;;;;;;;15.23;80.89;102306.75;5107425;28;20024;-80
2022/07/11 01:53:11;;;;;;;10.98;6.35;;;;;;;15.25;81.04;102314.66;5116853;28;20062;-79
2022/07/11 01:55:36;;;;;;;7.95;5.53;;;;;;;15.18;80.57;102311.59;5117965;28;20099;-80
2022/07/11 01:58:02;;;;;;;7.45;6.30;;;;;;;15.18;81.08;102309.75;5100070;28;20028;-80
2022/07/11 02:00:27;;;;;;;11.02;6.43;;;;;;;15.15;81.65;102317.16;5112005;28;20035;-80
2022/07/11 02:02:53;;;;;;;9.82;6.47;;;;;;;15.11;81.29;102319.22;5112293;28;20031;-80
2022/07/11 02:05:20;;;;;;;11.13;6.78;;;;;;;15.08;81.45;102322.09;5089219;28;20028;-80
2022/07/11 02:10:29;;;;;;;9.15;6.75;;;;;;;15.03;81.59;102326.94;5111486;28;20043;-81
2022/07/11 02:12:59;;;;;;;9.13;6.68;;;;;;;15.01;81.73;102318.16;5099849;28;20020;-81
2022/07/11 02:15:25;;;;;;;12.23;6.82;;;;;;;14.98;81.87;102313.88;5117834;28;20008;-81
2022/07/11 02:17:51;;;;;;;8.02;5.63;;;;;;;14.95;81.64;102307.91;5110568;28;20009;-82
2022/07/11 02:20:17;;;;;;;11.77;6.93;;;;;;;14.92;81.98;102308.97;5108053;28;20044;-81
2022/07/11 02:22:43;;;;;;;9.32;6.43;;;;;;;14.96;81.96;102312.28;5100158;28;20028;-81
2022/07/11 02:25:08;;;;;;;11.85;6.55;;;;;;;14.91;82.06;102309.94;5116864;28;20024;-81
2022/07/11 02:27:34;;;;;;;12.48;6.93;;;;;;;14.87;82.24;102311.13;5118733;28;20040;-81
2022/07/11 02:29:59;;;;;;;8.85;6.95;;;;;;;14.86;82.27;102320.13;5118470;28;20063;-82
2022/07/11 02:32:24;;;;;;;9.77;7.32;;;;;;;14.88;82.69;102309.31;5118341;28;20036;-80
2022/07/11 02:34:49;;;;;;;10.93;7.63;;;;;;;14.87;83.03;102304.91;5114868;28;20109;-82
2022/07/11 02:37:15;;;;;;;12.20;7.80;;;;;;;14.82;83.01;102307.91;5118156;28;20032;-81
2022/07/11 02:39:40;;;;;;;8.80;7.28;;;;;;;14.82;83.04;102302.56;5098942;28;20369;-80
2022/07/11 02:42:05;;;;;;;11.90;6.90;;;;;;;14.85;83.26;102309.53;5116818;28;20028;-80
2022/07/11 02:44:30;;;;;;;9.85;7.43;;;;;;;14.82;83.46;102305.22;5112954;28;20031;-81
2022/07/11 02:46:56;;;;;;;11.60;7.63;;;;;;;14.83;83.38;102303.44;5113543;28;20024;-80
2022/07/11 02:49:23;;;;;;;11.23;7.25;;;;;;;14.80;83.65;102310.72;5095386;28;20024;-81
2022/07/11 02:51:51;;;;;;;10.82;7.63;;;;;;;14.83;84.03;102312.31;5110693;28;20024;-82
2022/07/11 02:54:16;;;;;;;11.93;7.13;;;;;;;14.88;83.63;102315.50;5112984;28;20035;-81
2022/07/11 02:56:42;;;;;;;10.07;7.35;;;;;;;14.87;84.38;102304.91;5109298;28;20031;-81
2022/07/11 02:59:07;;;;;;;13.20;7.70;;;;;;;14.87;84.42;102310.25;5104942;28;20481;-80
2022/07/11 03:01:33;;;;;;;10.15;7.63;;;;;;;14.86;84.38;102312.09;5111298;28;20047;-81
2022/07/11 03:03:58;;;;;;;12.02;7.75;;;;;;;14.89;84.28;102305.66;5125482;28;20035;-81
2022/07/11 03:06:25;;;;;;;10.02;7.35;;;;;;;14.90;83.92;102302.03;5103931;28;20041;-81
2022/07/11 03:08:50;;;;;;;12.07;7.85;;;;;;;14.87;84.03;102304.91;5116869;28;20032;-82
2022/07/11 03:11:15;;;;;;;9.88;7.00;;;;;;;14.90;83.69;102308.22;5115170;28;20043;-82
2022/07/11 03:13:41;;;;;;;12.18;7.82;;;;;;;14.86;84.37;102306.75;5109810;28;20058;-81
2022/07/11 03:16:06;;;;;;;15.20;8.57;;;;;;;14.83;84.90;102312.31;5096978;28;20054;-80
2022/07/11 03:18:32;;;;;;;14.98;8.88;;;;;;;14.86;84.45;102311.25;5114380;28;20091;-81
2022/07/11 03:20:57;;;;;;;14.52;8.30;;;;;;;14.86;85.16;102313.91;5109959;28;20047;-80
2022/07/11 03:23:22;;;;;;;11.93;7.90;;;;;;;14.92;84.70;102310.78;5115472;28;20046;-80
2022/07/11 03:25:51;;;;;;;14.15;8.27;;;;;;;14.91;85.05;102317.13;5115011;28;20269;-80
2022/07/11 03:28:16;;;;;;;11.93;8.63;;;;;;;14.93;84.75;102320.53;5117305;28;20088;-80
2022/07/11 03:30:41;;;;;;;11.60;8.77;;;;;;;14.93;84.86;102323.22;5117152;28;20024;-81
2022/07/11 03:33:06;;;;;;;12.03;8.47;;;;;;;14.94;84.91;102322.25;5116757;28;20024;-80
2022/07/11 03:35:41;;;;;;;14.30;9.13;;;;;;;14.95;84.99;102324.81;5117116;28;20319;-80
2022/07/11 03:38:07;;;;;;;11.52;8.93;;;;;;;14.95;84.80;102326.63;5109624;28;20036;-81
2022/07/11 03:40:32;;;;;;;13.00;8.20;;;;;;;14.98;85.34;102321.06;5106856;28;20015;-80
2022/07/11 03:42:58;;;;;;;13.43;8.82;;;;;;;15.01;85.85;102320.84;5115343;28;20083;-80
2022/07/11 03:45:23;;;;;;;15.18;9.43;;;;;;;15.01;85.08;102309.28;5099536;28;20016;-80
2022/07/11 03:47:49;;;;;;;12.23;9.23;;;;;;;15.05;85.23;102316.13;5102049;28;20012;-80
2022/07/11 03:50:15;;;;;;;17.48;9.60;;;;;;;15.03;85.82;102318.06;5102203;28;20032;-81
2022/07/11 03:52:40;;;;;;;13.95;9.57;;;;;;;15.05;86.25;102322.31;5118952;28;20078;-80
2022/07/11 03:55:07;;;;;;;15.43;9.48;;;;;;;15.06;85.77;102326.72;5119296;28;20012;-81
2022/07/11 03:57:33;;;;;;;12.93;9.02;;;;;;;15.10;85.46;102325.50;5119462;28;20008;-82
2022/07/11 03:59:59;;;;;;;12.40;9.57;;;;;;;15.06;86.13;102316.00;5101731;28;20016;-80
2022/07/11 04:02:25;;;;;;;12.15;9.07;;;;;;;15.11;85.58;102307.66;5101662;28;20160;-81
2022/07/11 04:04:50;;;;;;;14.45;8.70;;;;;;;15.13;85.92;102308.38;5114755;28;20075;-81
2022/07/11 04:07:15;;;;;;;16.58;9.48;;;;;;;15.14;85.90;102323.50;5096877;28;20059;-80
2022/07/11 04:09:40;;;;;;;13.60;8.67;;;;;;;15.16;86.20;102325.06;5106805;28;20111;-81
2022/07/11 04:12:06;;;;;;;11.68;9.65;;;;;;;15.20;86.62;102325.69;5115132;28;20312;-80
2022/07/11 04:14:32;;;;;;;13.63;9.07;;;;;;;15.21;86.02;102316.72;5115881;28;20058;-81
2022/07/11 04:16:57;;;;;;;14.10;9.40;;;;;;;15.23;86.75;102320.13;5114872;28;20028;-81
2022/07/11 04:19:23;;;;;;;16.63;9.32;;;;;;;15.26;86.69;102309.19;5115032;28;20031;-82
2022/07/11 04:21:49;;;;;;;14.02;9.07;;;;;;;15.32;86.00;102315.91;5115181;28;20032;-81
2022/07/11 04:24:14;;;;;;;13.52;8.25;;;;;;;15.32;85.83;102311.44;5099756;28;20024;-81
2022/07/11 04:26:40;;;;;;;12.40;8.37;;;;;;;15.34;85.62;102316.69;5108261;28;20028;-81
2022/07/11 04:29:05;;;;;;;12.82;8.18;;;;;;;15.35;85.90;102316.56;5102496;28;20338;-81
2022/07/11 04:31:31;;;;;;;10.73;8.60;;;;;;;15.39;86.05;102305.63;5120526;28;20036;-82
2022/07/11 04:33:56;;;;;;;11.90;8.13;;;;;;;15.39;86.25;102309.16;5120385;28;20028;-82
2022/07/11 04:36:22;;;;;;;12.88;8.73;;;;;;;15.42;86.33;102314.31;5102017;28;20035;-82
2022/07/11 04:38:49;;;;;;;17.45;8.70;;;;;;;15.45;85.49;102316.72;5119116;28;20020;-80
2022/07/11 04:41:14;;;;;;;12.20;8.60;;;;;;;15.46;86.80;102321.13;5096715;28;20081;-80
2022/07/11 04:43:39;;;;;;;15.48;8.82;;;;;;;15.49;86.16;102320.91;5114548;28;20494;-80
2022/07/11 04:46:05;;;;;;;15.15;8.75;;;;;;;15.48;86.64;102319.19;5120621;28;20020;-81
2022/07/11 04:48:31;;;;;;;12.98;8.07;;;;;;;15.51;85.93;102326.16;5103590;28;20020;-81
2022/07/11 04:50:57;;;;;;;13.25;8.55;;;;;;;15.55;86.56;102324.94;5085332;28;20088;-81
2022/07/11 04:53:22;;;;;;;15.90;8.48;;;;;;;15.56;86.38;102331.16;5116994;28;20051;-81
2022/07/11 04:55:48;;;;;;;16.83;8.65;;;;;;;15.58;86.41;102329.22;5098730;28;20016;-81
2022/07/11 04:58:13;;;;;;;12.15;8.50;;;;;;;15.60;86.85;102340.66;5099813;28;20029;-80
2022/07/11 05:00:39;;;;;;;13.25;8.18;;;;;;;15.65;86.56;102335.81;5105373;28;20029;-81
2022/07/11 05:03:04;;;;;;;10.27;8.20;;;;;;;15.65;86.81;102335.81;5098796;28;20040;-80
2022/07/11 05:05:30;;;;;;;10.23;8.23;;;;;;;15.65;86.27;102342.03;5098309;28;20107;-80
2022/07/11 05:07:55;;;;;;;14.25;8.02;;;;;;;15.67;86.39;102336.56;5089142;28;20023;-80
2022/07/11 05:10:21;;;;;;;10.05;7.72;;;;;;;15.70;86.69;102344.38;5112246;28;20024;-81
2022/07/11 05:12:46;;;;;;;9.98;8.23;;;;;;;15.71;86.65;102346.09;5098787;28;20015;-81
2022/07/11 05:15:11;;;;;;;14.63;8.15;;;;;;;15.70;86.63;102347.91;5085176;28;20033;-81
2022/07/11 05:17:37;;;;;;;11.02;7.50;;;;;;;15.75;86.24;102349.38;5082815;28;20017;-81
2022/07/11 05:20:03;;;;;;;12.15;7.80;;;;;;;15.75;86.02;102352.91;5091743;28;20025;-80
2022/07/11 05:22:29;;;;;;;13.07;7.22;;;;;;;15.75;86.60;102347.56;5095267;28;20086;-80
2022/07/11 05:24:54;;;;;;;15.20;7.60;;;;;;;15.79;86.47;102345.56;5098022;28;20040;-80
2022/07/11 05:27:20;;;;;;;10.68;6.85;;;;;;;15.81;86.07;102348.97;5098116;28;20076;-80
2022/07/11 05:29:45;;;;;;;9.90;7.45;;;;;;;15.82;86.76;102348.84;5091172;28;20059;-80
2022/07/11 05:32:11;;;;;;;12.35;7.00;;;;;;;15.84;86.00;102348.75;5099358;28;20038;-81
2022/07/11 05:34:37;;;;;;;12.43;7.10;;;;;;;15.89;86.73;102351.94;5110739;28;20493;-81
2022/07/11 05:37:03;;;;;;;11.10;7.32;;;;;;;15.92;86.87;102354.38;5096841;28;20054;-82
2022/07/11 05:39:28;;;;;;;12.80;7.15;;;;;;;15.95;86.46;102350.59;5097223;28;20084;-81
2022/07/11 05:41:53;;;;;;;15.13;7.68;;;;;;;15.97;87.14;102351.34;5090033;28;20052;-81
2022/07/11 05:44:19;;;;;;;11.23;6.82;;;;;;;16.03;86.93;102354.41;5078983;28;20055;-80
2022/07/11 05:46:47;;;;;;;12.98;7.47;;;;;;;16.06;86.51;102353.34;5097857;28;20027;-81
2022/07/11 05:49:13;;;;;;;10.47;7.37;;;;;;;16.09;86.96;102351.28;5094967;28;20048;-81
2022/07/11 05:51:38;;;;;;;11.68;7.85;;;;;;;16.14;86.72;102356.28;5092639;28;20071;-81
2022/07/11 05:54:04;;;;;;;14.15;8.57;;;;;;;16.16;86.81;102358.84;5108060;28;20135;-82
2022/07/11 05:56:29;;;;;;;16.20;8.57;;;;;;;16.18;87.55;102356.91;5080996;28;20084;-81
2022/07/11 05:58:55;;;;;;;16.35;8.00;;;;;;;16.21;87.47;102359.34;5099366;28;20044;-81
2022/07/11 06:01:22;;;;;;;10.13;7.40;;;;;;;16.24;86.71;102359.97;5100835;28;20024;-80
2022/07/11 06:03:48;;;;;;;12.43;7.43;;;;;;;16.27;87.12;102359.72;5113511;28;20020;-80
2022/07/11 06:06:13;;;;;;;10.57;7.88;;;;;;;16.31;86.61;102362.19;5108210;28;20413;-81
2022/07/11 06:08:42;;;;;;;17.48;7.60;;;;;;;16.34;86.20;102360.13;5099169;28;20035;-83
2022/07/11 06:11:14;;;;;;;8.82;6.55;;;;;;;16.35;86.65;102363.63;5105322;28;20039;-83
2022/07/11 06:13:41;;;;;;;9.65;6.13;;;;;;;16.38;86.74;102363.41;5118815;28;20031;-83
2022/07/11 06:16:08;;;;;;;10.38;6.13;;;;;;;16.39;86.20;102368.66;5129173;27;20045;-82
2022/07/11 06:18:37;;;;;;;8.68;6.18;;;;;;;16.42;86.34;102367.53;5140499;27;20019;-84
2022/07/11 06:21:05;;;;;;;12.15;6.60;;;;;;;16.45;86.06;102380.72;5112183;28;20231;-83
2022/07/11 06:23:31;;;;;;;11.00;7.10;;;;;;;16.46;85.93;102379.75;5112758;28;20058;-84
2022/07/11 06:25:57;;;;;;;14.18;7.95;;;;;;;16.47;85.79;102376.13;5107686;28;20016;-82
2022/07/11 06:28:23;;;;;;;8.30;7.18;;;;;;;16.48;85.50;102380.50;5114199;28;20099;-82
2022/07/11 06:30:49;;;;;;;10.57;7.15;;;;;;;16.53;85.13;102380.16;5126625;27;20026;-82
2022/07/11 06:33:20;;;;;;;8.57;7.25;;;;;;;16.54;85.24;102373.81;5120198;28;20040;-82
2022/07/11 06:35:49;;;;;;;12.15;7.68;;;;;;;16.54;85.82;102380.03;5090069;28;20119;-83
2022/07/11 06:38:16;;;;;;;10.15;7.18;;;;;;;16.59;85.52;102379.69;5109275;28;20031;-82
2022/07/11 06:40:42;;;;;;;11.48;7.80;;;;;;;16.59;85.28;102374.31;5109310;27;20017;-84
2022/07/11 06:43:08;;;;;;;8.98;7.50;;;;;;;16.62;85.23;102376.72;5113602;28;20059;-84
2022/07/11 06:45:34;;;;;;;9.30;7.07;;;;;;;16.61;85.42;102372.34;5108516;28;20035;-84
2022/07/11 06:48:00;;;;;;;10.60;7.40;;;;;;;16.64;85.50;102381.00;5117943;28;20032;-82
2022/07/11 06:50:25;;;;;;;10.05;7.60;;;;;;;16.70;84.80;102373.47;5115976;28;20059;-83
2022/07/11 06:52:51;;;;;;;9.35;8.02;;;;;;;16.69;84.92;102377.97;5119133;28;20088;-83
2022/07/11 06:55:16;;;;;;;12.05;7.82;;;;;;;16.71;84.87;102373.34;5116043;28;20094;-82
2022/07/11 06:57:42;;;;;;;10.25;8.07;;;;;;;16.76;84.57;102365.78;5098026;28;20004;-83
2022/07/11 07:00:08;;;;;;;12.13;7.65;;;;;;;16.79;84.68;102373.59;5115508;28;20043;-83
2022/07/11 07:02:34;;;;;;;8.15;7.25;;;;;;;16.83;84.16;102371.53;5103529;28;20070;-82
2022/07/11 07:05:00;;;;;;;11.60;8.27;;;;;;;16.83;84.00;102366.16;5107545;28;20036;-83
2022/07/11 07:07:26;;;;;;;11.45;8.32;;;;;;;16.86;83.76;102368.63;5082717;28;20082;-85
2022/07/11 07:09:52;;;;;;;11.82;7.88;;;;;;;16.90;83.43;102377.28;5091926;28;20071;-81
2022/07/11 07:12:18;;;;;;;15.50;8.50;;;;;;;16.94;84.18;102363.50;5098283;28;20090;-79
2022/07/11 07:14:44;;;;;;;11.30;7.45;;;;;;;16.93;83.86;102372.53;5110851;28;20044;-80
2022/07/11 07:17:09;;;;;;;10.30;7.50;;;;;;;16.99;83.32;102371.19;5108653;28;20016;-81
2022/07/11 07:19:35;;;;;;;11.63;7.93;;;;;;;17.01;83.43;102372.78;5108775;28;20067;-80
2022/07/11 07:22:00;;;;;;;10.88;7.80;;;;;;;17.06;82.27;102366.19;5107733;28;20060;-81
2022/07/11 07:24:25;;;;;;;10.07;7.45;;;;;;;17.10;82.69;102362.28;5093814;28;20036;-81
2022/07/11 07:26:51;;;;;;;10.50;7.95;;;;;;;17.16;82.05;102356.41;5116649;28;20019;-81
2022/07/11 07:29:16;;;;;;;11.38;7.80;;;;;;;17.18;81.32;102357.97;5113900;28;20137;-79
2022/07/11 07:31:42;;;;;;;10.82;7.47;;;;;;;17.26;81.22;102359.22;5113120;28;20050;-80
2022/07/11 07:34:08;;;;;;;8.70;7.85;;;;;;;17.31;80.59;102359.69;5094946;28;20064;-81
2022/07/11 07:36:33;;;;;;;10.48;7.70;;;;;;;17.32;80.55;102356.00;5097669;28;20032;-80
2022/07/11 07:39:00;;;;;;;13.40;7.97;;;;;;;17.43;80.27;102358.69;5109790;28;20093;-80
2022/07/11 07:41:27;;;;;;;8.75;7.38;;;;;;;17.49;81.14;102360.88;5109383;28;20288;-79
2022/07/11 07:43:52;;;;;;;12.20;7.53;;;;;;;17.54;79.96;102364.03;5109325;28;20036;-80
2022/07/11 07:46:17;;;;;;;10.18;6.90;;;;;;;17.65;79.92;102359.59;5102490;28;20038;-85
2022/07/11 07:48:43;;;;;;;9.07;7.05;;;;;;;17.72;79.20;102368.88;5116117;28;20092;-85
2022/07/11 07:51:11;;;;;;;7.25;6.30;;;;;;;17.75;79.51;102373.97;5112776;28;20033;-80
2022/07/11 07:53:37;;;;;;;10.75;6.88;;;;;;;17.78;78.87;102376.41;5107967;28;20098;-82
2022/07/11 07:56:04;;;;;;;7.10;5.97;;;;;;;17.87;78.07;102374.81;5067191;28;20494;-82
2022/07/11 07:58:29;;;;;;;11.50;6.20;;;;;;;17.95;78.14;102369.66;5098494;28;20427;-82
2022/07/11 08:03:39;;;;;;;8.13;6.78;;;;;;;18.11;77.57;102369.22;5087874;28;20043;-83
2022/07/11 08:06:04;;;;;;;8.02;6.53;;;;;;;18.23;76.56;102378.09;5098196;28;20066;-83
2022/07/11 08:08:29;;;;;;;10.50;7.03;;;;;;;18.28;76.47;102383.94;5100765;28;20032;-83
2022/07/11 08:10:55;;;;;;;10.30;7.60;;;;;;;18.37;76.05;102382.28;5104093;28;20036;-82
2022/07/11 08:13:21;;;;;;;10.10;7.25;;;;;;;18.35;75.69;102382.41;5093381;28;20291;-84
2022/07/11 08:15:46;;;;;;;9.95;7.57;;;;;;;18.42;76.62;102377.38;5125789;28;20050;-82
2022/07/11 08:18:13;;;;;;;8.02;6.93;;;;;;;18.42;75.34;102380.94;5101875;28;20517;-83
2022/07/11 08:20:39;;;;;;;10.05;7.57;;;;;;;18.46;75.33;102384.19;5102335;28;20051;-82
2022/07/11 08:23:04;;;;;;;7.43;6.57;;;;;;;18.53;75.31;102384.53;5090639;28;20166;-82
2022/07/11 08:25:30;;;;;;;10.68;6.93;;;;;;;18.52;75.31;102382.81;5096669;28;20039;-84
2022/07/11 08:27:56;;;;;;;11.65;6.97;;;;;;;18.54;75.13;102387.09;5104484;28;20034;-83
2022/07/11 08:30:21;;;;;;;10.55;6.90;;;;;;;18.57;75.44;102380.56;5085895;28;20088;-83
2022/07/11 08:32:47;;;;;;;11.55;7.00;;;;;;;18.62;74.61;102383.75;5093123;28;20020;-82
2022/07/11 08:35:15;;;;;;;11.90;7.32;;;;;;;18.64;75.13;102384.47;5091554;28;20033;-83
2022/07/11 08:37:41;;;;;;;9.83;7.57;;;;;;;18.75;75.34;102387.06;5097948;28;20403;-83
2022/07/11 08:40:07;;;;;;;9.75;8.13;;;;;;;18.78;74.55;102378.72;5083378;28;20298;-83
2022/07/11 08:42:39;;;;;;;10.43;7.07;;;;;;;18.86;74.58;102388.84;5088582;28;20035;-84
2022/07/11 08:45:06;;;;;;;10.20;7.63;;;;;;;18.86;73.93;102380.78;5105899;28;20042;-84
2022/07/11 08:47:32;;;;;;;10.50;8.10;;;;;;;18.85;74.97;102382.63;5104554;28;20059;-83
2022/07/11 08:49:58;;;;;;;11.90;7.95;;;;;;;18.95;73.45;102381.78;5097554;28;20071;-83
2022/07/11 08:52:24;;;;;;;10.40;8.02;;;;;;;18.99;73.91;102380.56;5100513;28;20048;-81
2022/07/11 08:54:49;;;;;;;9.95;8.38;;;;;;;19.03;73.97;102381.97;5098864;28;20057;-83
2022/07/11 08:57:15;;;;;;;12.85;8.20;;;;;;;19.14;73.69;102387.25;5103848;28;20050;-82
2022/07/11 08:59:43;;;;;;;11.73;8.45;;;;;;;19.05;73.74;102390.75;5104264;28;20030;-82
2022/07/11 09:02:12;;;;;;;11.52;7.32;;;;;;;19.11;72.89;102386.69;5105026;28;20030;-82
2022/07/11 09:04:37;;;;;;;12.07;8.30;;;;;;;19.18;73.06;102385.16;5093906;28;20024;-81
2022/07/11 09:07:03;;;;;;;14.30;8.40;;;;;;;19.24;73.30;102381.91;5102678;28;20111;-82
2022/07/11 09:09:29;;;;;;;10.70;8.40;;;;;;;19.22;73.05;102373.97;5102076;28;20033;-82
2022/07/11 09:11:56;;;;;;;9.10;8.13;;;;;;;19.36;72.35;102370.03;5103758;28;20087;-81
2022/07/11 09:14:30;;;;;;;11.10;8.48;;;;;;;19.74;72.33;102372.94;5099941;28;20035;-83
2022/07/11 09:17:00;;;;;;;10.70;8.52;;;;;;;20.08;71.53;102375.22;5107751;28;20419;-82
2022/07/11 09:19:28;;;;;;;9.60;8.48;;;;;;;20.46;70.14;102373.47;5087123;28;20024;-81
2022/07/11 09:27:47;;;;;;;14.60;8.63;;;;;;;21.03;66.79;102370.75;5105565;28;20066;-81
2022/07/11 09:30:17;;;;;;;12.27;8.67;;;;;;;21.26;66.51;102360.41;5105202;28;20028;-81
2022/07/11 09:32:53;;;;;;;12.00;8.18;;;;;;;21.54;66.55;102355.84;5098132;28;20332;-82
2022/07/11 09:35:19;;;;;;;9.77;7.57;;;;;;;21.72;63.66;102363.13;5066120;28;20052;-81
2022/07/11 09:37:44;;;;;;;9.00;7.10;;;;;;;21.96;62.71;102354.38;5101427;28;20028;-83
2022/07/11 09:40:13;;;;;;;9.90;7.82;;;;;;;22.16;62.27;102357.75;5104716;28;20036;-83
2022/07/11 09:42:47;;;;;;;;;;;;;;;22.43;65.84;102361.34;5093748;28;20032;-83
2022/07/11 09:45:13;;;;;;;10.57;7.72;;;;;;;22.31;62.50;102352.66;5092615;28;19892;-82
2022/07/11 09:47:46;;;;;;;7.72;6.93;;;;;;;22.44;63.24;102358.50;5106213;28;20032;-83
2022/07/11 09:50:12;;;;;;;9.98;7.28;;;;;;;22.41;61.79;102363.38;5097104;28;20052;-83
2022/07/11 09:52:38;;;;;;;7.85;6.28;;;;;;;22.28;62.54;102361.06;5088267;28;20052;-82
2022/07/11 09:55:05;;;;;;;7.45;6.68;;;;;;;22.23;62.27;102357.97;5104474;28;20053;-83
2022/07/11 09:57:35;;;;;;;9.23;7.30;;;;;;;22.10;62.62;102364.66;5098389;28;20017;-83
2022/07/11 10:00:14;;;;;;;7.18;6.47;;;;;;;22.20;62.58;102352.88;5068939;28;20025;-83
2022/07/11 10:02:40;;;;;;;8.38;6.60;;;;;;;22.13;61.55;102358.94;5102339;28;20043;-84
2022/07/11 10:05:06;;;;;;;7.18;6.20;;;;;;;22.06;61.98;102355.13;5099816;28;20031;-84
2022/07/11 10:07:32;;;;;;;8.90;6.45;;;;;;;22.08;61.41;102361.25;5079350;28;20139;-84
2022/07/11 10:10:02;;;;;;;9.68;7.43;;;;;;;22.02;61.46;102364.59;5093032;28;20016;-84
2022/07/11 10:12:32;;;;;;;9.52;6.68;;;;;;;22.02;61.69;102372.69;5089518;28;20048;-82
2022/07/11 10:15:01;;;;;;;7.63;6.75;;;;;;;21.92;62.07;102366.53;5105059;28;20060;-83
2022/07/11 10:17:39;;;;;;;8.40;6.93;;;;;;;21.98;62.67;102361.34;5097211;28;20115;-83
2022/07/11 10:20:10;;;;;;;10.57;7.63;;;;;;;21.98;62.24;102358.63;5074319;28;20399;-84
2022/07/11 10:22:44;;;;;;;10.82;8.10;;;;;;;21.96;61.39;102357.94;5076389;28;20040;-84
2022/07/11 10:25:35;;;;;;;9.10;8.05;;;;;;;22.06;62.38;102365.13;5108841;28;20059;-83
2022/07/11 10:28:15;;;;;;;11.23;7.65;;;;;;;21.87;62.38;102367.00;5107676;28;20070;-83
2022/07/11 10:30:44;;;;;;;11.57;7.90;;;;;;;21.78;61.38;102373.31;5111500;28;20053;-83
2022/07/11 10:33:10;;;;;;;11.02;8.18;;;;;;;21.80;61.71;102372.16;5117825;28;20051;-83
2022/07/11 10:35:40;;;;;;;9.82;8.18;;;;;;;21.85;61.51;102373.53;5111573;28;20016;-84
2022/07/11 10:38:06;;;;;;;9.13;6.80;;;;;;;21.80;62.07;102376.75;5108364;28;20055;-83
2022/07/11 10:40:49;;;;;;;11.63;7.35;;;;;;;21.98;63.10;102380.28;5109667;28;20475;-84
2022/07/11 10:43:29;;;;;;;9.43;6.65;;;;;;;22.12;63.17;102380.75;5110736;28;20078;-83
2022/07/11 10:45:58;;;;;;;8.80;7.32;;;;;;;22.10;61.75;102374.59;5110357;28;20031;-84
2022/07/11 10:48:25;;;;;;;9.90;6.82;;;;;;;22.22;62.13;102375.25;5111970;28;20482;-85
2022/07/11 10:51:05;;;;;;;11.52;7.30;;;;;;;22.28;61.92;102372.78;5111575;28;20394;-83
2022/07/11 10:53:33;;;;;;;10.55;7.13;;;;;;;22.17;61.42;102376.53;5111557;28;20058;-83
2022/07/11 10:56:26;;;;;;;11.48;7.53;;;;;;;22.28;61.75;102374.59;5112127;28;20038;-84
2022/07/11 10:59:17;;;;;;;13.38;7.38;;;;;;;22.24;61.94;102373.22;5103631;28;20175;-84
2022/07/11 11:02:02;;;;;;;12.50;7.40;;;;;;;22.23;62.55;102372.34;5098539;28;20066;-84
2022/07/11 11:05:02;;;;;;;9.32;7.00;;;;;;;22.13;61.89;102375.16;5111769;28;20031;-83
2022/07/11 11:07:38;;;;;;;7.97;6.22;;;;;;;22.05;62.26;102377.81;5082339;28;20043;-84
2022/07/11 11:10:29;;;;;;;8.38;5.95;;;;;;;22.15;62.05;102383.97;5073366;28;20020;-83
2022/07/11 11:13:07;;;;;;;8.02;5.47;;;;;;;22.05;61.75;102380.50;5108577;28;20063;-84
2022/07/11 11:15:46;;;;;;;6.88;5.00;;;;;;;21.94;61.89;102381.59;5086760;28;20077;-82
2022/07/11 11:18:24;;;;;;;6.55;4.80;;;;;;;21.93;62.05;102382.59;5117068;28;20043;-83
2022/07/11 11:21:13;;;;;;;7.28;4.30;;;;;;;21.88;62.28;102386.75;5094792;28;20058;-84
2022/07/11 11:24:02;;;;;;;;;;;;;;;22.04;62.32;102386.91;5095468;28;20067;-83
2022/07/11 11:26:49;;;;;;;5.50;3.58;;;;;;;21.89;62.62;102392.03;5114560;28;19952;-83
2022/07/11 11:29:20;;;;;;;8.38;4.32;;;;;;;21.91;63.19;102387.31;5096616;28;20034;-81
2022/07/11 11:31:51;;;;;;;5.18;3.65;;;;;;;21.88;62.35;102384.91;5093559;28;20017;-82
2022/07/11 11:34:17;;;;;;;4.25;3.65;;;;;;;21.99;62.34;102387.38;5100941;28;20032;-83